Neftekamsk, Russia
Current Conditions -  °F | °C
As of 5:30 PM on Saturday 20 Dec 2014 (Local Time) from UWKE Reporting Station
Freezing Drizzle Freezing Drizzle  
Wind Chill: 17°   Ceiling: 800
Heat Index: 28°   Visibility: 4mi
Dew Point: 27°   Wind: 16mph
Humidity: 93%   Direction: 180°S
Pressure: 29.71"   Gusts: 22mph
Location:  56.08°N, 54.27°E
Report Text: UWKE 201230Z 18007G10MPS 7000 -FZDZ OVC008 M02/M03 Q1006 NOSIGRMK QFE738/0983 21420534
Loading
Personal Weather Stations






























Interactive Weather Map New forecast layout! Learn more

10-Day Weather Forecast

Advertisements
Track Severe Weather on mobile